Monday, December 17, 2018, 4:48 AM EST
Back to Local

KLFI, Langley Air Force Base

Location: Hampton, VA, United States Lat: 37.083
Local Time: 4:48 AM EST ( 9:48 GMT) Lon: -76.35
Time Zone: US/Eastern Elev: 9 ft

Show me the last for .
Show Decoded

2018-12-17 03:56 METAR KLFI 170856Z AUTO 27006KT 10SM CLR 05/04 A2992 RMK AO2 SLP139 T00450038
                 58001 $ =
2018-12-17 02:56 METAR KLFI 170756Z AUTO 27006KT 10SM OVC038 07/04 A2992 RMK AO2 SLP139 T00660041
                 $ =
2018-12-17 01:56 METAR KLFI 170656Z AUTO 29006KT 10SM OVC038 07/04 A2994 RMK AO2 SLP146 T00690040
                 $ =
2018-12-17 01:11 METAR KLFI 170611Z AUTO 32009KT 10SM OVC034 07/04 A2993 RMK AO2 SLP142 $ =
2018-12-17 00:56 METAR KLFI 170556Z AUTO 33011KT 10SM OVC031 07/04 A2993 RMK AO2 SLP142 T00730037
                 10084 20062 57002 $ =
2018-12-16 23:56 METAR KLFI 170456Z AUTO 30010KT 10SM OVC031 07/04 A2993 RMK AO2 SLP142 T00730039
                 401220062 $ =
2018-12-16 23:26 METAR KLFI 170426Z AUTO 33012KT 10SM OVC033 07/04 A2994 RMK AO2 SLP146 $ =
2018-12-16 22:56 METAR KLFI 170356Z AUTO 32009KT 10SM BKN036 07/04 A2993 RMK AO2 SLP142 T00670044
                 $ =
2018-12-16 21:56 METAR KLFI 170256Z AUTO 30008KT 10SM FEW070 06/05 A2993 RMK AO2 SLP142 T00640047
                 52015 $ =
2018-12-16 20:56 METAR KLFI 170156Z AUTO 31010KT 10SM OVC065 07/06 A2993 RMK AO2 SLP142 T00730058
                 $ =
2018-12-16 20:26 METAR KLFI 170126Z AUTO 32008KT 10SM SCT013 OVC065 07/06 A2991 RMK AO2 SLP135 $
                 =
2018-12-16 19:56 METAR KLFI 170056Z AUTO 31009KT 10SM OVC014 08/06 A2990 RMK AO2 SLP132 T00760059
                 $ =
2018-12-16 19:41 METAR KLFI 170041Z AUTO 30009KT 10SM OVC014 08/06 A2990 RMK AO2 SLP132 $ =
2018-12-16 18:56 METAR KLFI 162356Z AUTO 31011KT 10SM BKN016 OVC085 08/07 A2989 RMK AO2 CIG 014
                 RWY08 SLP129 60000 T00840069 10113 20084 52025 $ =
2018-12-16 18:11 METAR KLFI 162311Z AUTO 29013G20KT 10SM BKN018 OVC031 09/07 A2987 RMK AO2 CIG
                 018V031 BKN V SCT CIG 015 RWY08 SLP122 $ =
2018-12-16 17:56 METAR KLFI 162256Z AUTO 28012KT 10SM FEW016 OVC031 09/07 A2986 RMK AO2 SLP118
                 T00900074 $ =
2018-12-16 16:56 METAR KLFI 162156Z AUTO 27012KT 10SM BKN012 BKN020 OVC037 10/09 A2984 RMK AO2
                 SLP112 T00950086 $ =
2018-12-16 15:56 METAR KLFI 162056Z AUTO 29015G20KT 10SM OVC012 10/09 A2981 RMK AO2 CIG 011 RWY08
                 SLP101 60000 T00990090 53007 $ =
2018-12-16 14:56 METAR KLFI 161956Z 28013G18KT 10SM OVC013 10/09 A2981 RMK AO2A CIG 012 RWY08
                 SLP101 T01030092 $ =
2018-12-16 13:56 METAR KLFI 161856Z 26013G21KT 10SM BKN013 OVC020 11/09 A2979 RMK AO2A RAB04E31
                 SLP095 P0000 T01080094 $ =
2018-12-16 13:31 METAR KLFI 161831Z 26010KT 9SM SCT013 BKN025 BKN044 BKN110 11/10 A2978 RMK AO2A
                 RAB04E31 CIG 015V025 CIG 018 RWY08 SLP091 $ =
2018-12-16 13:04 METAR KLFI 161804Z AUTO 24014KT 10SM -RA SCT014 BKN021 BKN044 OVC060 11/10 A2979
                 RMK AO2 RAB04 SLP095 $ =
2018-12-16 12:56 METAR KLFI 161756Z AUTO 25014KT 10SM SCT014 BKN021 BKN029 OVC060 12/10 A2979 RMK
                 AO2 CIG 014V021 CIG 013 RWY08 SLP095 T01150099 10117 20088 57023 $ =
2018-12-16 12:55 METAR KLFI 161755Z 25014KT 10SM SCT014 BKN021 OVC060 12/10 A2979 RMK CIG 014V021
                 CIG 013 RWY08 SLP095 T01150099 10117 20088 57023 $ =
2018-12-16 12:31 METAR KLFI 161731Z 26012KT 10SM SCT015 BKN022 11/10 A2980 RMK CIG 014 RWY08
                 SLP098 $ =
2018-12-16 12:11 METAR KLFI 161711Z AUTO 26012KT 10SM BKN015 OVC022 11/10 A2980 RMK AO2 SLP098 $
                 =
2018-12-16 11:56 METAR KLFI 161656Z 26011KT 10SM SCT014 BKN055 11/10 A2981 RMK AO2A SLP101
                 T01110102 $ =
2018-12-16 10:56 METAR KLFI 161556Z AUTO 24007KT 8SM SCT010 OVC055 11/11 A2983 RMK AO2 SLP108
                 T01080108 $ =
2018-12-16 09:58 METAR KLFI 161458Z 23008KT 8SM BKN009 OVC050 10/10 A2986 RMK CIG 009V050 SLP118
                 T01040104 58004 $ =
2018-12-16 09:56 METAR KLFI 161456Z AUTO 23007KT 8SM BKN009 OVC050 10/10 A2986 RMK AO2 CIG
                 009V050 SLP118 T01040104 58004 $ =
2018-12-16 08:56 METAR KLFI 161356Z AUTO 20010KT 9SM FEW009 11/11 A2986 RMK AO2 SLP118 T01050105
                 $ =
2018-12-16 08:26 METAR KLFI 161326Z AUTO 19006KT 9SM SCT009 BKN050 10/10 A2986 RMK AO2 SLP118 $ =
2018-12-16 08:24 METAR KLFI 161324Z 20006KT 9SM FEW010 SCT050 10/10 A2986 RMK SLP118 $ =
2018-12-16 08:11 METAR KLFI 161311Z AUTO 21007KT 9SM BKN009 09/09 A2987 RMK AO2 SLP122 $ =
2018-12-16 07:57 METAR KLFI 161257Z 21007KT 9SM SCT010 BKN050 09/09 A2987 RMK SLP122 T00930093 $
                 =
2018-12-16 07:56 METAR KLFI 161256Z AUTO 21007KT 10SM SCT010 BKN050 09/09 A2987 RMK AO2 SLP122
                 T00890089 $ =
2018-12-16 07:26 METAR KLFI 161226Z AUTO 22007KT 10SM FEW011 OVC050 09/09 A2987 RMK AO2 SLP122 $
                 =
2018-12-16 07:11 METAR KLFI 161211Z AUTO 22009KT 10SM BKN011 OVC050 09/09 A2987 RMK AO2 SLP122 $
                 =
2018-12-16 07:06 METAR KLFI 161206Z 22009KT 10SM SCT011 BKN050 09/09 A2987 RMK SLP122 $ =
2018-12-16 06:56 METAR KLFI 161156Z AUTO 22009KT 10SM OVC011 09/09 A2987 RMK AO2 SLP122 70038
                 T00940094 10112 20087 56005 $ =
2018-12-16 06:34 METAR KLFI 161134Z 22008KT 10SM SCT011 09/09 A2987 RMK SLP122 $ =
2018-12-16 06:26 METAR KLFI 161126Z AUTO 22009KT 10SM BKN011 09/09 A2987 RMK AO2 BKN V SCT SLP122
                 $ =
2018-12-16 05:56 METAR KLFI 161056Z AUTO 26004KT 10SM FEW012 09/09 A2987 RMK AO2 SLP122 T00880088
                 $ =
2018-12-16 05:26 METAR KLFI 161026Z AUTO 24010KT 10SM SCT013 09/09 A2987 RMK AO2 SLP122 $ =
2018-12-16 04:56 METAR KLFI 160956Z AUTO 23012KT 10SM OVC012 10/10 A2989 RMK AO2 SLP129 T00990099
                 $ =

Support USWX by starting your Amazon purchase here.